Česky Dansk Deutsch English Español Suomi Français Magyar Italiano Nederlands norsk Polski Português svenska Türkçe

 

Het Weer

Ponta Pora Intl (Brazilië)

22:00, 17 augustus 2016 (GMT)

NWNNE
WE
SWSSE
Home            
Ponta Pora Intl Concepcion Campo Grande Aeroporto Aeropuerto Guarany Foz Do Iguacu Aeroporto Asuncion / Aeropuerto Iguazu Aerodrome Maringa Corumba Presidente Prudente Puerto Suarez Londrina Aeroporto Formosa Aerodrome Mariscal Estigarribia Encarnacion Posadas Aero. Las Lomitas Corrientes Aero. Robore Resistencia Aero. Nueva Asuncion Presidencia Roque Saenz Pena Aerodrome Bauru

Om een weerknop op uw website of weblog te plaatsen, copieer onderstaande code en plak die in uw pagina. In het eerste vakje staat HTML-code, in het tweede vakje UBB-code.


Add to Google

Details

Visibility: 6000 m, 6.0 km, 19685 ft, 3.7 miles
Clouds:Aufgelockert bewölkt at 2500 ft, 762 m
Temperature:27°C, 81°F
Gefühlte Temperatur:28°C, 83°F
Dew-point:18°C, 64°F
Atmospheric pressure:1013 hPa, 759.8 mmHg, 29.91 inHg, 1.000 atm
Relative humidity:57.9 %
METAR:SBPP 172200Z 00000KT 6000 SCT025 27/18 Q1013

Snelkoppelingen

Actuele weersinformatie van de hele wereld. Voeg locaties toe met het plus (+) symbool. Deze snelkoppelingen kunnen worden toegevoegd aan Google.

Lid van de Technetium groep

website free tracking
StatCounter NetStat W3C Validator

28-11-2020 11:39:18
astro.technetium.be money.technetium.be phote.technetium.be tafeltennistafel.technetium.be www.ligfiets.net